Canton, Illinois
Current Conditions -  °F | °C
As of 9:54 AM on Friday 21 Nov 2014 (Local Time) from KPIA Reporting Station
Clear Clear  
Wind Chill: 15°   Ceiling: Unl
Heat Index: 25°   Visibility: 10mi
Dew Point:   Wind: 10mph
Humidity: 46%   Direction: 150°SSE
Pressure: 30.46"   Gusts: NA
Location:  40.56°N, 90.03°W
Report Text: KPIA 211554Z 15009KT 10SM CLR M04/M14 A3046 RMK AO2 SLP324 T10391139
Loading
Personal Weather Stations






























Interactive Weather Map New forecast layout! Learn more

10-Day Weather Forecast

Advertisements
Track Severe Weather on mobile